createdAt,value
2019-02-18T00:00:01.263Z,978.98
2019-02-18T00:01:01.241Z,978.98
2019-02-18T00:02:01.225Z,978.97
2019-02-18T00:03:01.209Z,978.96
2019-02-18T00:04:01.194Z,978.97
2019-02-18T00:05:01.179Z,978.91
2019-02-18T00:06:01.162Z,978.96
2019-02-18T00:07:01.146Z,978.94
2019-02-18T00:08:01.130Z,978.92
2019-02-18T00:09:01.122Z,978.90
2019-02-18T00:10:01.171Z,978.89
2019-02-18T00:11:01.087Z,978.92
2019-02-18T00:12:01.069Z,978.86
2019-02-18T00:13:01.054Z,978.88
2019-02-18T00:14:01.039Z,978.91
2019-02-18T00:15:01.027Z,978.90
2019-02-18T00:16:01.005Z,978.94
2019-02-18T00:17:00.996Z,978.92
2019-02-18T00:18:00.975Z,978.89
2019-02-18T00:19:00.960Z,978.95
2019-02-18T00:20:00.949Z,978.94
2019-02-18T00:21:00.932Z,978.92
2019-02-18T00:22:00.915Z,978.90
2019-02-18T00:23:00.905Z,978.92
2019-02-18T00:24:00.887Z,978.92
2019-02-18T00:25:00.870Z,978.93
2019-02-18T00:26:00.853Z,978.93
2019-02-18T00:27:00.837Z,978.92
2019-02-18T00:28:00.823Z,978.94
2019-02-18T00:29:00.871Z,978.93
2019-02-18T00:30:00.793Z,978.87
2019-02-18T00:31:00.776Z,978.86
2019-02-18T00:32:00.760Z,978.89
2019-02-18T00:33:00.745Z,978.87
2019-02-18T00:34:00.728Z,978.90
2019-02-18T00:35:00.714Z,978.85
2019-02-18T00:36:00.703Z,978.86
2019-02-18T00:37:00.685Z,978.91
2019-02-18T00:38:00.667Z,978.90
2019-02-18T00:39:00.649Z,978.85
2019-02-18T00:40:00.636Z,978.92
2019-02-18T00:41:00.619Z,978.87
2019-02-18T00:42:00.603Z,978.89
2019-02-18T00:43:00.587Z,978.89
2019-02-18T00:44:00.573Z,978.94
2019-02-18T00:45:00.561Z,978.89
2019-02-18T00:46:00.544Z,978.90
2019-02-18T00:47:00.523Z,978.91
2019-02-18T00:48:00.508Z,978.91
2019-02-18T00:49:00.493Z,978.91
2019-02-18T00:50:00.482Z,978.91
2019-02-18T00:51:00.461Z,978.90
2019-02-18T00:52:00.452Z,978.88
2019-02-18T00:53:00.435Z,978.91
2019-02-18T00:54:00.417Z,978.88
2019-02-18T00:55:00.445Z,978.87
2019-02-18T00:56:00.383Z,978.82
2019-02-18T00:57:00.370Z,978.85
2019-02-18T00:58:00.352Z,978.87
2019-02-18T00:59:00.336Z,978.86
2019-02-18T01:00:00.324Z,978.88
2019-02-18T01:01:00.306Z,978.92
2019-02-18T01:02:00.291Z,978.91
2019-02-18T01:03:00.271Z,978.90
2019-02-18T01:04:00.259Z,978.93
2019-02-18T01:05:00.294Z,978.89
2019-02-18T01:06:00.227Z,978.90
2019-02-18T01:07:00.210Z,978.91
2019-02-18T01:08:00.195Z,978.90
2019-02-18T01:09:00.179Z,978.90
2019-02-18T01:10:00.331Z,978.91
2019-02-18T01:11:00.146Z,978.89
2019-02-18T01:12:00.129Z,978.89
2019-02-18T01:13:00.116Z,978.89
2019-02-18T01:14:00.099Z,978.92
2019-02-18T01:15:00.324Z,978.89
2019-02-18T01:16:00.067Z,978.87
2019-02-18T01:17:00.059Z,978.88
2019-02-18T01:18:00.040Z,978.89
2019-02-18T01:19:00.021Z,978.86
2019-02-18T01:20:00.005Z,978.90
2019-02-18T01:20:59.989Z,978.88
2019-02-18T01:21:59.971Z,978.89
2019-02-18T01:22:59.955Z,978.92
2019-02-18T01:23:59.939Z,978.90
2019-02-18T01:24:59.923Z,978.92
2019-02-18T01:25:59.911Z,978.93
2019-02-18T01:26:59.896Z,978.98
2019-02-18T01:27:59.875Z,978.95
2019-02-18T01:28:59.859Z,978.98
2019-02-18T01:29:59.844Z,978.95
2019-02-18T01:30:59.827Z,978.92
2019-02-18T01:31:59.812Z,978.94
2019-02-18T01:32:59.797Z,978.93
2019-02-18T01:33:59.782Z,978.95
2019-02-18T01:34:59.767Z,978.93
2019-02-18T01:35:59.748Z,978.95
2019-02-18T01:36:59.734Z,978.93
2019-02-18T01:37:59.718Z,978.90
2019-02-18T01:38:59.702Z,978.88
2019-02-18T01:39:59.687Z,978.89
2019-02-18T01:40:59.669Z,978.91
2019-02-18T01:41:59.654Z,978.91
2019-02-18T01:42:59.636Z,978.90
2019-02-18T01:43:59.620Z,978.89
2019-02-18T01:44:59.604Z,978.87
2019-02-18T01:45:59.588Z,978.87
2019-02-18T01:46:59.571Z,978.89
2019-02-18T01:47:59.555Z,978.90
2019-02-18T01:48:59.540Z,978.86
2019-02-18T01:49:59.524Z,978.83
2019-02-18T01:50:59.508Z,978.81
2019-02-18T01:51:59.492Z,978.81
2019-02-18T01:52:59.475Z,978.82
2019-02-18T01:53:59.461Z,978.84
2019-02-18T01:54:59.443Z,978.82
2019-02-18T01:55:59.426Z,978.84
2019-02-18T01:56:59.411Z,978.81
2019-02-18T01:57:59.395Z,978.79
2019-02-18T01:58:59.378Z,978.74
2019-02-18T01:59:59.363Z,978.77
2019-02-18T02:00:59.346Z,978.77
2019-02-18T02:01:59.330Z,978.79
2019-02-18T02:02:59.313Z,978.71
2019-02-18T02:03:59.298Z,978.77
2019-02-18T02:04:59.281Z,978.78
2019-02-18T02:05:59.275Z,978.75
2019-02-18T02:06:59.249Z,978.74
2019-02-18T02:07:59.235Z,978.75
2019-02-18T02:08:59.220Z,978.73
2019-02-18T02:09:59.202Z,978.75
2019-02-18T02:10:59.185Z,978.74
2019-02-18T02:11:59.169Z,978.73
2019-02-18T02:12:59.153Z,978.72
2019-02-18T02:13:59.139Z,978.73
2019-02-18T02:14:59.120Z,978.69
2019-02-18T02:15:59.105Z,978.69
2019-02-18T02:16:59.091Z,978.72
2019-02-18T02:17:59.072Z,978.68
2019-02-18T02:18:59.054Z,978.67
2019-02-18T02:19:59.038Z,978.67
2019-02-18T02:20:59.023Z,978.66
2019-02-18T02:21:59.012Z,978.65
2019-02-18T02:22:58.990Z,978.65
2019-02-18T02:23:58.974Z,978.67
2019-02-18T02:24:58.958Z,978.61
2019-02-18T02:25:58.943Z,978.64
2019-02-18T02:26:58.926Z,978.60
2019-02-18T02:27:58.919Z,978.59
2019-02-18T02:28:58.893Z,978.59
2019-02-18T02:29:58.880Z,978.61
2019-02-18T02:31:00.982Z,978.53
2019-02-18T02:31:58.851Z,978.55
2019-02-18T02:32:58.829Z,978.58
2019-02-18T02:33:58.814Z,978.56
2019-02-18T02:34:58.798Z,978.57
2019-02-18T02:35:58.781Z,978.60
2019-02-18T02:36:58.766Z,978.53
2019-02-18T02:38:07.412Z,978.53
2019-02-18T02:38:58.732Z,978.55
2019-02-18T02:39:58.718Z,978.52
2019-02-18T02:40:58.702Z,978.54
2019-02-18T02:41:58.683Z,978.49
2019-02-18T02:42:58.665Z,978.50
2019-02-18T02:43:58.650Z,978.48
2019-02-18T02:44:58.635Z,978.52
2019-02-18T02:45:58.617Z,978.50
2019-02-18T02:46:58.603Z,978.45
2019-02-18T02:47:58.586Z,978.47
2019-02-18T02:48:58.568Z,978.44
2019-02-18T02:49:58.551Z,978.43
2019-02-18T02:50:58.585Z,978.42
2019-02-18T02:51:58.518Z,978.43
2019-02-18T02:52:58.506Z,978.45
2019-02-18T02:53:58.486Z,978.43
2019-02-18T02:54:58.472Z,978.42
2019-02-18T02:55:58.451Z,978.44
2019-02-18T02:56:58.436Z,978.44
2019-02-18T02:57:58.420Z,978.45
2019-02-18T02:58:58.403Z,978.42
2019-02-18T02:59:58.387Z,978.45
2019-02-18T03:00:58.371Z,978.42
2019-02-18T03:01:58.356Z,978.44
2019-02-18T03:02:58.337Z,978.38
2019-02-18T03:03:58.327Z,978.38
2019-02-18T03:04:58.307Z,978.38
2019-02-18T03:05:58.290Z,978.41
2019-02-18T03:06:58.274Z,978.44
2019-02-18T03:07:58.258Z,978.47
2019-02-18T03:08:58.239Z,978.49
2019-02-18T03:09:58.222Z,978.43
2019-02-18T03:10:58.207Z,978.45
2019-02-18T03:11:58.191Z,978.44
2019-02-18T03:12:58.173Z,978.44
2019-02-18T03:13:58.159Z,978.44
2019-02-18T03:14:58.139Z,978.44
2019-02-18T03:15:58.124Z,978.42
2019-02-18T03:16:58.108Z,978.45
2019-02-18T03:17:58.093Z,978.44
2019-02-18T03:18:58.075Z,978.43
2019-02-18T03:19:58.067Z,978.41
2019-02-18T03:20:58.043Z,978.44
2019-02-18T03:21:58.031Z,978.40
2019-02-18T03:22:58.009Z,978.43
2019-02-18T03:23:57.998Z,978.43
2019-02-18T03:24:57.985Z,978.48
2019-02-18T03:25:57.962Z,978.41
2019-02-18T03:26:57.942Z,978.45
2019-02-18T03:27:57.941Z,978.49
2019-02-18T03:28:57.923Z,978.42
2019-02-18T03:29:57.895Z,978.42
2019-02-18T03:30:57.878Z,978.40
2019-02-18T03:31:57.865Z,978.43
2019-02-18T03:32:57.847Z,978.45
2019-02-18T03:33:57.828Z,978.40
2019-02-18T03:35:00.476Z,978.37
2019-02-18T03:35:57.795Z,978.44
2019-02-18T03:36:57.780Z,978.45
2019-02-18T03:37:57.762Z,978.49
2019-02-18T03:38:57.745Z,978.47
2019-02-18T03:39:57.728Z,978.43
2019-02-18T03:41:03.130Z,978.45
2019-02-18T03:41:57.696Z,978.46
2019-02-18T03:42:57.681Z,978.46
2019-02-18T03:43:57.664Z,978.45
2019-02-18T03:44:57.647Z,978.44
2019-02-18T03:45:57.631Z,978.47
2019-02-18T03:46:57.611Z,978.43
2019-02-18T03:47:57.598Z,978.43
2019-02-18T03:48:57.579Z,978.44
2019-02-18T03:49:57.566Z,978.44
2019-02-18T03:50:57.547Z,978.43
2019-02-18T03:51:57.530Z,978.46
2019-02-18T03:52:57.514Z,978.43
2019-02-18T03:53:57.504Z,978.45
2019-02-18T03:54:57.479Z,978.44
2019-02-18T03:55:57.464Z,978.43
2019-02-18T03:56:57.447Z,978.41
2019-02-18T03:57:57.432Z,978.43
2019-02-18T03:58:57.415Z,978.41
2019-02-18T03:59:57.398Z,978.49
2019-02-18T04:00:57.381Z,978.49
2019-02-18T04:01:57.366Z,978.51
2019-02-18T04:02:57.348Z,978.47
2019-02-18T04:03:57.330Z,978.46
2019-02-18T04:04:57.313Z,978.49
2019-02-18T04:05:57.306Z,978.47
2019-02-18T04:06:57.285Z,978.47
2019-02-18T04:07:57.265Z,978.42
2019-02-18T04:08:57.249Z,978.45
2019-02-18T04:09:57.230Z,978.43
2019-02-18T04:10:57.213Z,978.44
2019-02-18T04:11:57.199Z,978.44
2019-02-18T04:12:57.183Z,978.44
2019-02-18T04:13:57.166Z,978.41
2019-02-18T04:14:57.149Z,978.42
2019-02-18T04:15:57.134Z,978.41
2019-02-18T04:16:57.113Z,978.40
2019-02-18T04:17:57.101Z,978.41
2019-02-18T04:18:57.083Z,978.42
2019-02-18T04:19:57.065Z,978.46
2019-02-18T04:20:57.051Z,978.48
2019-02-18T04:21:57.032Z,978.48
2019-02-18T04:22:57.014Z,978.48
2019-02-18T04:23:57.001Z,978.48
2019-02-18T04:24:56.979Z,978.52
2019-02-18T04:25:56.963Z,978.50
2019-02-18T04:26:56.946Z,978.46
2019-02-18T04:27:56.932Z,978.47
2019-02-18T04:28:56.913Z,978.45
2019-02-18T04:29:56.896Z,978.45
2019-02-18T04:30:56.897Z,978.45
2019-02-18T04:31:56.867Z,978.44
2019-02-18T04:32:56.847Z,978.39
2019-02-18T04:33:56.835Z,978.40
2019-02-18T04:34:56.818Z,978.40
2019-02-18T04:35:56.796Z,978.43
2019-02-18T04:36:56.780Z,978.41
2019-02-18T04:37:56.766Z,978.40
2019-02-18T04:38:56.745Z,978.41
2019-02-18T04:39:56.729Z,978.40
2019-02-18T04:40:56.714Z,978.42
2019-02-18T04:41:56.697Z,978.39
2019-02-18T04:42:56.678Z,978.39
2019-02-18T04:43:56.669Z,978.42
2019-02-18T04:44:56.646Z,978.39
2019-02-18T04:45:56.634Z,978.42
2019-02-18T04:46:56.611Z,978.44
2019-02-18T04:47:56.596Z,978.41
2019-02-18T04:48:56.617Z,978.46
2019-02-18T04:49:56.564Z,978.42
2019-02-18T04:50:56.546Z,978.41
2019-02-18T04:51:56.527Z,978.38
2019-02-18T04:52:56.514Z,978.40
2019-02-18T04:53:56.496Z,978.38
2019-02-18T04:54:56.479Z,978.41
2019-02-18T04:55:56.461Z,978.45
2019-02-18T04:56:56.445Z,978.43
2019-02-18T04:57:56.427Z,978.41
2019-02-18T04:58:56.409Z,978.43
2019-02-18T04:59:56.391Z,978.42
2019-02-18T05:00:56.375Z,978.40
2019-02-18T05:01:56.363Z,978.45
2019-02-18T05:02:56.349Z,978.46
2019-02-18T05:03:56.325Z,978.46
2019-02-18T05:04:56.308Z,978.41
2019-02-18T05:05:57.937Z,978.45
2019-02-18T05:06:56.277Z,978.41
2019-02-18T05:07:56.262Z,978.47
2019-02-18T05:09:05.067Z,978.44
2019-02-18T05:09:56.228Z,978.46
2019-02-18T05:10:56.210Z,978.43
2019-02-18T05:11:56.191Z,978.43
2019-02-18T05:12:56.177Z,978.41
2019-02-18T05:13:56.160Z,978.47
2019-02-18T05:14:56.143Z,978.39
2019-02-18T05:15:56.127Z,978.40
2019-02-18T05:16:56.107Z,978.41
2019-02-18T05:17:56.142Z,978.36
2019-02-18T05:18:56.074Z,978.38
2019-02-18T05:19:56.059Z,978.37
2019-02-18T05:20:56.044Z,978.40
2019-02-18T05:21:56.025Z,978.39
2019-02-18T05:22:56.007Z,978.39
2019-02-18T05:23:55.992Z,978.37
2019-02-18T05:24:55.984Z,978.35
2019-02-18T05:25:55.959Z,978.37
2019-02-18T05:26:55.940Z,978.33
2019-02-18T05:27:55.926Z,978.37
2019-02-18T05:28:55.908Z,978.34
2019-02-18T05:29:55.891Z,978.34
2019-02-18T05:30:55.873Z,978.37
2019-02-18T05:31:55.858Z,978.30
2019-02-18T05:32:55.890Z,978.33
2019-02-18T05:33:55.823Z,978.32
2019-02-18T05:34:55.808Z,978.32
2019-02-18T05:35:56.079Z,978.31
2019-02-18T05:36:55.775Z,978.30
2019-02-18T05:37:55.756Z,978.24
2019-02-18T05:38:55.739Z,978.29
2019-02-18T05:39:55.723Z,978.28
2019-02-18T05:40:55.705Z,978.27
2019-02-18T05:41:55.690Z,978.26
2019-02-18T05:42:55.674Z,978.29
2019-02-18T05:43:55.658Z,978.26
2019-02-18T05:44:55.638Z,978.35
2019-02-18T05:45:55.622Z,978.32
2019-02-18T05:46:55.603Z,978.30
2019-02-18T05:47:55.589Z,978.32
2019-02-18T05:48:55.577Z,978.34
2019-02-18T05:49:55.554Z,978.30
2019-02-18T05:50:55.534Z,978.28
2019-02-18T05:51:55.520Z,978.28
2019-02-18T05:52:55.506Z,978.28
2019-02-18T05:53:55.488Z,978.28
2019-02-18T05:54:55.472Z,978.29
2019-02-18T05:55:55.453Z,978.26
2019-02-18T05:56:55.437Z,978.28
2019-02-18T05:57:55.419Z,978.32
2019-02-18T05:58:55.402Z,978.27
2019-02-18T05:59:55.387Z,978.27
2019-02-18T06:00:55.374Z,978.28
2019-02-18T06:01:55.353Z,978.27
2019-02-18T06:02:55.332Z,978.24
2019-02-18T06:03:55.317Z,978.24
2019-02-18T06:04:55.300Z,978.25
2019-02-18T06:05:55.289Z,978.29
2019-02-18T06:06:55.269Z,978.29
2019-02-18T06:07:55.253Z,978.25
2019-02-18T06:08:55.245Z,978.31
2019-02-18T06:09:55.219Z,978.31
2019-02-18T06:10:55.199Z,978.30
2019-02-18T06:11:55.186Z,978.27
2019-02-18T06:12:55.165Z,978.30
2019-02-18T06:13:55.152Z,978.26
2019-02-18T06:14:55.130Z,978.27
2019-02-18T06:15:55.114Z,978.27
2019-02-18T06:16:55.100Z,978.30
2019-02-18T06:17:55.084Z,978.28
2019-02-18T06:18:55.066Z,978.29
2019-02-18T06:19:55.049Z,978.28
2019-02-18T06:20:55.030Z,978.25
2019-02-18T06:21:55.015Z,978.23
2019-02-18T06:22:54.997Z,978.23
2019-02-18T06:23:54.993Z,978.21
2019-02-18T06:24:54.966Z,978.22
2019-02-18T06:25:54.948Z,978.21
2019-02-18T06:26:54.931Z,978.22
2019-02-18T06:27:54.913Z,978.19
2019-02-18T06:28:54.894Z,978.18
2019-02-18T06:29:54.879Z,978.19
2019-02-18T06:30:55.106Z,978.19
2019-02-18T06:31:54.843Z,978.19
2019-02-18T06:32:54.829Z,978.19
2019-02-18T06:33:54.811Z,978.20
2019-02-18T06:34:54.792Z,978.21
2019-02-18T06:35:54.778Z,978.22
2019-02-18T06:36:54.760Z,978.22
2019-02-18T06:37:54.741Z,978.23
2019-02-18T06:38:54.767Z,978.24
2019-02-18T06:39:54.758Z,978.22
2019-02-18T06:40:54.693Z,978.21
2019-02-18T06:41:54.674Z,978.22
2019-02-18T06:42:54.658Z,978.21
2019-02-18T06:43:54.642Z,978.23
2019-02-18T06:44:54.626Z,978.23
2019-02-18T06:45:54.608Z,978.24
2019-02-18T06:46:54.592Z,978.28
2019-02-18T06:47:54.575Z,978.29
2019-02-18T06:48:54.556Z,978.32
2019-02-18T06:49:54.540Z,978.35
2019-02-18T06:50:54.522Z,978.35
2019-02-18T06:51:54.510Z,978.37
2019-02-18T06:52:54.489Z,978.33
2019-02-18T06:53:54.475Z,978.32
2019-02-18T06:54:54.453Z,978.38
2019-02-18T06:55:54.440Z,978.33
2019-02-18T06:56:54.420Z,978.36
2019-02-18T06:57:54.406Z,978.36
2019-02-18T06:58:54.392Z,978.35
2019-02-18T06:59:54.371Z,978.35
2019-02-18T07:00:54.358Z,978.35
2019-02-18T07:01:54.337Z,978.32
2019-02-18T07:02:54.321Z,978.32
2019-02-18T07:03:54.304Z,978.28
2019-02-18T07:04:54.285Z,978.29
2019-02-18T07:05:54.269Z,978.26
2019-02-18T07:06:54.254Z,978.31
2019-02-18T07:07:54.239Z,978.34
2019-02-18T07:08:56.074Z,978.33
2019-02-18T07:09:54.202Z,978.29
2019-02-18T07:10:54.186Z,978.33
2019-02-18T07:11:54.166Z,978.31
2019-02-18T07:12:54.150Z,978.31
2019-02-18T07:13:54.136Z,978.31
2019-02-18T07:14:54.120Z,978.31
2019-02-18T07:15:54.099Z,978.33
2019-02-18T07:16:54.083Z,978.31
2019-02-18T07:17:54.067Z,978.27
2019-02-18T07:18:54.051Z,978.30
2019-02-18T07:19:54.034Z,978.28
2019-02-18T07:20:54.017Z,978.31
2019-02-18T07:21:54.000Z,978.26
2019-02-18T07:22:53.984Z,978.31
2019-02-18T07:23:53.965Z,978.28
2019-02-18T07:24:53.952Z,978.29
2019-02-18T07:25:53.935Z,978.24
2019-02-18T07:26:53.918Z,978.24
2019-02-18T07:27:53.905Z,978.27
2019-02-18T07:28:53.881Z,978.30
2019-02-18T07:29:53.867Z,978.28
2019-02-18T07:30:53.849Z,978.27
2019-02-18T07:31:53.833Z,978.27
2019-02-18T07:32:53.821Z,978.29
2019-02-18T07:33:53.801Z,978.27
2019-02-18T07:34:53.783Z,978.27
2019-02-18T07:35:53.766Z,978.25
2019-02-18T07:36:53.749Z,978.23
2019-02-18T07:37:53.735Z,978.27
2019-02-18T07:38:53.714Z,978.30
2019-02-18T07:40:01.214Z,978.24
2019-02-18T07:40:53.684Z,978.28
2019-02-18T07:41:53.668Z,978.25
2019-02-18T07:42:53.648Z,978.26
2019-02-18T07:43:53.637Z,978.25
2019-02-18T07:44:53.616Z,978.25
2019-02-18T07:45:53.611Z,978.25
2019-02-18T07:46:53.581Z,978.30
2019-02-18T07:47:53.565Z,978.28
2019-02-18T07:48:53.549Z,978.26
2019-02-18T07:49:53.534Z,978.29
2019-02-18T07:50:53.517Z,978.28
2019-02-18T07:51:53.499Z,978.31
2019-02-18T07:52:53.483Z,978.26
2019-02-18T07:53:53.466Z,978.27
2019-02-18T07:54:53.450Z,978.23
2019-02-18T07:55:53.432Z,978.24
2019-02-18T07:56:53.417Z,978.22
2019-02-18T07:57:53.402Z,978.25
2019-02-18T07:58:53.386Z,978.24
2019-02-18T07:59:53.366Z,978.24
2019-02-18T08:00:53.352Z,978.27
2019-02-18T08:01:53.356Z,978.28
2019-02-18T08:02:53.317Z,978.25
2019-02-18T08:03:53.302Z,978.27
2019-02-18T08:04:53.285Z,978.24
2019-02-18T08:05:53.270Z,978.26
2019-02-18T08:06:53.254Z,978.27
2019-02-18T08:07:53.241Z,978.30
2019-02-18T08:08:53.220Z,978.23
2019-02-18T08:09:53.207Z,978.29
2019-02-18T08:10:53.188Z,978.26
2019-02-18T08:11:53.173Z,978.23
2019-02-18T08:12:53.160Z,978.21
2019-02-18T08:13:53.140Z,978.25
2019-02-18T08:14:53.121Z,978.24
2019-02-18T08:15:53.110Z,978.27
2019-02-18T08:16:53.091Z,978.23
2019-02-18T08:17:53.084Z,978.22
2019-02-18T08:18:53.059Z,978.18
2019-02-18T08:19:53.043Z,978.20
2019-02-18T08:20:53.029Z,978.13
2019-02-18T08:21:53.010Z,978.12
2019-02-18T08:22:52.995Z,978.09
2019-02-18T08:23:59.646Z,978.10
2019-02-18T08:24:52.963Z,978.07
2019-02-18T08:25:52.948Z,978.07
2019-02-18T08:26:52.932Z,978.07
2019-02-18T08:27:52.917Z,978.06
2019-02-18T08:28:52.901Z,978.01
2019-02-18T08:29:52.886Z,978.05
2019-02-18T08:30:52.868Z,978.04
2019-02-18T08:31:52.856Z,978.01
2019-02-18T08:32:52.838Z,978.07
2019-02-18T08:33:52.823Z,978.05
2019-02-18T08:34:52.806Z,978.07
2019-02-18T08:35:52.791Z,978.04
2019-02-18T08:36:52.776Z,978.04
2019-02-18T08:37:52.763Z,978.00
2019-02-18T08:38:52.747Z,978.05
2019-02-18T08:39:52.731Z,977.97
2019-02-18T08:40:52.717Z,978.00
2019-02-18T08:41:52.699Z,977.99
2019-02-18T08:42:52.682Z,977.98
2019-02-18T08:43:52.670Z,977.98
2019-02-18T08:44:52.657Z,978.00
2019-02-18T08:45:52.640Z,978.04
2019-02-18T08:46:52.624Z,978.02
2019-02-18T08:47:52.611Z,977.97
2019-02-18T08:48:52.597Z,977.99
2019-02-18T08:49:52.579Z,977.99
2019-02-18T08:50:52.561Z,977.97
2019-02-18T08:51:52.551Z,977.97
2019-02-18T08:52:52.534Z,977.99
2019-02-18T08:53:52.521Z,977.98
2019-02-18T08:54:56.512Z,977.97
2019-02-18T08:55:52.488Z,977.97
2019-02-18T08:56:52.473Z,977.94
2019-02-18T08:57:52.460Z,977.97
2019-02-18T08:58:52.444Z,977.92
2019-02-18T08:59:52.430Z,977.95
2019-02-18T09:01:02.028Z,977.95
2019-02-18T09:01:52.399Z,977.92
2019-02-18T09:02:52.387Z,977.93
2019-02-18T09:03:52.371Z,977.90
2019-02-18T09:04:52.358Z,977.93
2019-02-18T09:05:52.342Z,977.86
2019-02-18T09:06:52.329Z,977.85
2019-02-18T09:07:52.313Z,977.84
2019-02-18T09:08:52.299Z,977.87
2019-02-18T09:09:52.293Z,977.86
2019-02-18T09:10:52.275Z,977.87
2019-02-18T09:11:52.261Z,977.88
2019-02-18T09:12:52.241Z,977.87
2019-02-18T09:13:52.228Z,977.87
2019-02-18T09:14:52.214Z,977.84
2019-02-18T09:15:59.786Z,977.84
2019-02-18T09:16:52.184Z,977.87
2019-02-18T09:17:52.177Z,977.85
2019-02-18T09:18:52.158Z,977.83
2019-02-18T09:19:52.146Z,977.84
2019-02-18T09:20:52.129Z,977.84
2019-02-18T09:21:52.114Z,977.85
2019-02-18T09:22:52.101Z,977.85
2019-02-18T09:23:52.089Z,977.83
2019-02-18T09:24:52.073Z,977.82
2019-02-18T09:25:52.062Z,977.83
2019-02-18T09:26:52.045Z,977.82
2019-02-18T09:27:52.038Z,977.84
2019-02-18T09:28:52.020Z,977.83
2019-02-18T09:29:52.007Z,977.80
2019-02-18T09:30:51.990Z,977.78
2019-02-18T09:31:51.981Z,977.77
2019-02-18T09:32:51.964Z,977.74
2019-02-18T09:33:51.952Z,977.75
2019-02-18T09:34:53.122Z,977.70
2019-02-18T09:35:51.921Z,977.70
2019-02-18T09:36:51.911Z,977.71
2019-02-18T09:37:51.895Z,977.67
2019-02-18T09:38:51.881Z,977.63
2019-02-18T09:39:51.870Z,977.61
2019-02-18T09:40:51.860Z,977.59
2019-02-18T09:41:51.845Z,977.62
2019-02-18T09:42:51.843Z,977.59
2019-02-18T09:43:51.816Z,977.54
2019-02-18T09:44:51.802Z,977.51
2019-02-18T09:45:51.805Z,977.59
2019-02-18T09:46:51.774Z,977.59
2019-02-18T09:47:54.210Z,977.58
2019-02-18T09:48:51.750Z,977.62
2019-02-18T09:49:51.740Z,977.62
2019-02-18T09:50:51.720Z,977.58
2019-02-18T09:51:51.709Z,977.59
2019-02-18T09:52:51.695Z,977.56
2019-02-18T09:53:51.685Z,977.56
2019-02-18T09:54:51.673Z,977.51
2019-02-18T09:55:51.659Z,977.51
2019-02-18T09:56:51.646Z,977.49
2019-02-18T09:57:51.634Z,977.47
2019-02-18T09:58:51.619Z,977.51
2019-02-18T09:59:51.608Z,977.48
2019-02-18T10:00:51.597Z,977.49
2019-02-18T10:01:51.583Z,977.48
2019-02-18T10:02:51.568Z,977.46
2019-02-18T10:03:51.556Z,977.48
2019-02-18T10:04:51.548Z,977.47
2019-02-18T10:05:51.535Z,977.43
2019-02-18T10:06:51.522Z,977.45
2019-02-18T10:07:51.507Z,977.44
2019-02-18T10:08:51.497Z,977.49
2019-02-18T10:09:51.485Z,977.48
2019-02-18T10:10:55.944Z,977.44
2019-02-18T10:11:51.461Z,977.45
2019-02-18T10:12:51.449Z,977.46
2019-02-18T10:13:51.436Z,977.43
2019-02-18T10:14:51.422Z,977.45
2019-02-18T10:15:51.412Z,977.45
2019-02-18T10:16:51.401Z,977.42
2019-02-18T10:17:51.390Z,977.43
2019-02-18T10:18:51.378Z,977.42
2019-02-18T10:19:51.364Z,977.41
2019-02-18T10:20:51.354Z,977.39
2019-02-18T10:21:51.343Z,977.39
2019-02-18T10:22:51.331Z,977.39
2019-02-18T10:23:51.320Z,977.38
2019-02-18T10:24:51.307Z,977.38
2019-02-18T10:25:51.294Z,977.36
2019-02-18T10:26:51.283Z,977.32
2019-02-18T10:27:51.271Z,977.29
2019-02-18T10:28:51.261Z,977.31
2019-02-18T10:29:51.251Z,977.32
2019-02-18T10:30:51.237Z,977.30
2019-02-18T10:31:51.225Z,977.31
2019-02-18T10:32:51.212Z,977.28
2019-02-18T10:33:51.202Z,977.28
2019-02-18T10:34:51.189Z,977.29
2019-02-18T10:35:51.181Z,977.33
2019-02-18T10:36:51.170Z,977.34
2019-02-18T10:37:55.272Z,977.30
2019-02-18T10:38:51.145Z,977.34
2019-02-18T10:39:51.136Z,977.26
2019-02-18T10:40:51.122Z,977.27
2019-02-18T10:41:51.112Z,977.30
2019-02-18T10:42:51.100Z,977.27
2019-02-18T10:43:51.088Z,977.29
2019-02-18T10:44:51.078Z,977.30
2019-02-18T10:45:51.069Z,977.25
2019-02-18T10:46:51.054Z,977.25
2019-02-18T10:47:51.045Z,977.26
2019-02-18T10:48:51.032Z,977.23
2019-02-18T10:49:51.031Z,977.19
2019-02-18T10:50:51.009Z,977.16
2019-02-18T10:51:51.000Z,977.11
2019-02-18T10:52:50.987Z,977.11
2019-02-18T10:53:50.980Z,977.11
2019-02-18T10:54:50.975Z,977.11
2019-02-18T10:55:50.957Z,977.08
2019-02-18T10:56:50.946Z,977.11
2019-02-18T10:57:50.934Z,977.04
2019-02-18T10:58:50.922Z,977.06
2019-02-18T10:59:50.914Z,976.99
2019-02-18T11:00:50.902Z,977.01
2019-02-18T11:01:50.892Z,976.98
2019-02-18T11:02:50.881Z,976.96
2019-02-18T11:03:50.874Z,976.95
2019-02-18T11:04:50.858Z,976.94
2019-02-18T11:05:50.849Z,976.90
2019-02-18T11:06:50.838Z,976.89
2019-02-18T11:07:50.832Z,976.90
2019-02-18T11:08:50.820Z,976.88
2019-02-18T11:09:50.808Z,976.85
2019-02-18T11:10:50.798Z,976.85
2019-02-18T11:11:50.789Z,976.85
2019-02-18T11:12:50.787Z,976.83
2019-02-18T11:13:50.768Z,976.77
2019-02-18T11:14:50.757Z,976.77
2019-02-18T11:15:50.747Z,976.73
2019-02-18T11:16:50.738Z,976.74
2019-02-18T11:17:50.726Z,976.73
2019-02-18T11:18:50.719Z,976.70
2019-02-18T11:19:50.707Z,976.67
2019-02-18T11:20:50.695Z,976.66
2019-02-18T11:21:50.689Z,976.66
2019-02-18T11:22:50.674Z,976.65
2019-02-18T11:23:50.665Z,976.61
2019-02-18T11:24:50.657Z,976.61
2019-02-18T11:25:50.646Z,976.60
2019-02-18T11:26:50.634Z,976.57
2019-02-18T11:27:50.624Z,976.58
2019-02-18T11:28:50.617Z,976.50
2019-02-18T11:29:50.608Z,976.47
2019-02-18T11:30:50.593Z,976.47
2019-02-18T11:31:50.584Z,976.43
2019-02-18T11:32:50.580Z,976.48
2019-02-18T11:33:50.567Z,976.45
2019-02-18T11:34:50.554Z,976.41
2019-02-18T11:35:50.547Z,976.36
2019-02-18T11:36:50.542Z,976.35
2019-02-18T11:37:50.528Z,976.38
2019-02-18T11:38:50.515Z,976.34
2019-02-18T11:39:50.517Z,976.31
2019-02-18T11:40:50.497Z,976.35
2019-02-18T11:41:50.488Z,976.27
2019-02-18T11:42:50.476Z,976.30
2019-02-18T11:43:50.470Z,976.30
2019-02-18T11:44:50.459Z,976.30
2019-02-18T11:45:50.455Z,976.27
2019-02-18T11:46:50.440Z,976.25
2019-02-18T11:47:50.439Z,976.32
2019-02-18T11:48:50.419Z,976.26
2019-02-18T11:49:50.411Z,976.22
2019-02-18T11:50:50.401Z,976.25
2019-02-18T11:51:50.392Z,976.22
2019-02-18T11:52:50.385Z,976.22
2019-02-18T11:53:50.375Z,976.22
2019-02-18T11:54:50.366Z,976.22
2019-02-18T11:55:50.361Z,976.21
2019-02-18T11:56:50.347Z,976.19
2019-02-18T11:57:50.340Z,976.14
2019-02-18T11:58:50.330Z,976.13
2019-02-18T11:59:50.318Z,976.08
2019-02-18T12:00:50.316Z,976.09
2019-02-18T12:01:50.302Z,976.09
2019-02-18T12:02:50.293Z,976.09
2019-02-18T12:03:50.280Z,976.05
2019-02-18T12:04:50.277Z,976.05
2019-02-18T12:05:50.267Z,976.02
2019-02-18T12:06:50.257Z,975.96
2019-02-18T12:07:50.246Z,975.96
2019-02-18T12:08:50.239Z,975.93
2019-02-18T12:09:50.229Z,975.93
2019-02-18T12:10:50.219Z,975.90
2019-02-18T12:11:50.211Z,975.86
2019-02-18T12:12:50.205Z,975.87
2019-02-18T12:13:50.191Z,975.80
2019-02-18T12:14:50.188Z,975.84
2019-02-18T12:15:50.173Z,975.85
2019-02-18T12:16:50.164Z,975.80
2019-02-18T12:17:50.163Z,975.77
2019-02-18T12:18:50.149Z,975.75
2019-02-18T12:19:50.138Z,975.72
2019-02-18T12:20:50.128Z,975.71
2019-02-18T12:21:50.118Z,975.70
2019-02-18T12:22:50.111Z,975.65
2019-02-18T12:23:50.102Z,975.67
2019-02-18T12:24:50.094Z,975.67
2019-02-18T12:25:50.084Z,975.66
2019-02-18T12:26:50.074Z,975.64
2019-02-18T12:27:50.068Z,975.67